KJSO

Cherokee County Airport

Jacksonville, Texas, USA
METAR KJSO 210355Z AUTO 00000KT 10SM CLR 28/19 A3003 RMK AO2 T02870195
Observed Flight Rules
Aug-21 @ 03:55 UTC (14 minutes ago) Visual Flight Rules
Visibility Clouds
10 miles
  • Clear skies
Temperatures Readings
Current 29°C / 84°F
Dewpoint 20°C / 68°F
Humidity 58%
Altimeter 30.03" Hg
Pressure 1017 hPa
Elevation 206
METAR KJSO 210355Z AUTO 00000KT 10SM CLR 28/19 A3003 RMK AO2 T02870195
Observed Flight Rules
Aug-21 @ 03:55 UTC
(14 minutes ago)
VFR
Clouds
  • Clear skies
Temperature Dewpoint
29°C / 84°F 20°C / 68°F
Humidity Altimeter Pressure
58% 30.03" Hg 1017 hPa